Boreas River, NY

1:51 AM EDT on May 01, 2017 (GMT -0400)
Boreas Mountain | | Change Station

Elev 2014 ft 43.95 °N, 73.90 °W | Updated 47 days ago

Overcast
Overcast
16.3 °F
Feels Like 5 °F
N
9.2
Wind Variable Wind from WSW
Gusts 10.7 mph

Today
High -- | Low -- °F
--% Chance of Precip.
Yesterday
High -- | Low -- °F
Precip. -- in
Pressure 29.97 in
Visibility 10.0 miles
Clouds Few 8000 ft
Overcast 10000 ft
Windchill 5 °F
Dew Point 9 °F
Humidity 72%
Rainfall 0.13 in
Snow Depth Not available.
5:46 AM 7:59 PM
Waxing Crescent, 29% visible
METAR KSLK 010451Z AUTO 00000KT 10SM FEW080 OVC100 03/02 A2993 RMK AO2 SLP149 T00330017 400501039 TSNO
Pressure 29.97 in
Visibility 10.0 miles
Clouds Few 8000 ft
Overcast 10000 ft
Windchill 5 °F
Dew Point 9 °F
Humidity 72%
Rainfall 0.13 in
Snow Depth Not available.
5:46 AM 7:59 PM
Waxing Crescent, 29% visible
METAR KSLK 010451Z AUTO 00000KT 10SM FEW080 OVC100 03/02 A2993 RMK AO2 SLP149 T00330017 400501039 TSNO

Get Severe Weather Alerts

Thanks for signing up!

Be on the lookout for a verification email in your inbox.

You'll start receiving the daily forecast at 8 AM.

×

10-Day Weather Forecast

Almanac

Astronomy

May. 01, 2017 Rise Set
Actual Time
Civil Twilight
Nautical Twilight
Astronomical Twilight
Moon
Length of Visible Light
Length of Day
Tomorrow will be .
, % of the Moon is Illuminated

Today's Extremes

State Highs State Lows

Community

WunderPhotos

WunderBlog® & News

Nearby

Air Quality

  Air Quality AQ Index Pollutant
Not available.

Snow Depth

Station Depth Elevation

Earthquake Activity

City Distance Mag. Time & Date
Minimum magnitude displayed is 2.5.

Coastal Water Temperatures

Place Temperature

Stations

Nearby Weather Stations

Station Location Temp. Windchill Dew Point Humidity Wind Precip. Elev Updated Type
                   

Watches & Warnings

There are currently no watches in effect.